Weather at Mother Teresa Hospital Heliport

Public forecast

Using degrees Celsius for public forecast. Weather courtesy of forecast.io.

Closest aviation weather report (METAR) to Mother Teresa Hospital Heliport

Closest report is Tirana International Airport Mother Teresa, 6.7 nm (12.4 km) NW.

2024/06/17 04:50 (retrieved 12 minutes ago)

LATI 170450Z VRB03KT 9999 BKN160 20/16 Q1014 NOSIG

Closest aviation forecast (TAF) to Mother Teresa Hospital Heliport

Forecast is more than 6 hours old.

Closest forecast is Kuk√ęs International Airport, 49.4 nm (91.4 km) NNE.

2024/06/16 18:00 Ammendment (retrieved 11 hours ago)

TAF AMD LAKU 161900Z 1618/1718 CNL